Anniston, Missouri
Current Conditions -  °F | °C
As of 3:55 AM on Friday 24 Oct 2014 (Local Time) from KCIR Reporting Station
Moderate Fog Moderate Fog  
Wind Chill: 43°   Ceiling: 6000
Heat Index: 43°   Visibility: 0.5mi
Dew Point: 40°   Wind: 0mph
Humidity: 90%   Direction: NA
Pressure: 30.13"   Gusts: NA
Location:  36.83°N, 89.33°W
Report Text: KCIR 240855Z AUTO 00000KT 1/2SM FG OVC060 06/05 A3013 RMK AO2 T00620047
Loading
Personal Weather Stations






























Interactive Weather Map
Tropical Storm Tracking
New forecast layout! Learn more

10-Day Weather Forecast

Advertisements
Track Severe Weather on mobile